sensor_id;sensor_type;location;lat;lon;timestamp;temperature;humidity
9311;DHT22;4694;52.464;13.480;2023-07-20T00:01:30;17.30;99.90
9311;DHT22;4694;52.464;13.480;2023-07-20T00:03:57;17.30;99.90
9311;DHT22;4694;52.464;13.480;2023-07-20T00:06:24;17.30;99.90
9311;DHT22;4694;52.464;13.480;2023-07-20T00:08:53;17.30;99.90
9311;DHT22;4694;52.464;13.480;2023-07-20T00:11:20;17.30;99.90
9311;DHT22;4694;52.464;13.480;2023-07-20T00:13:46;17.30;99.90
9311;DHT22;4694;52.464;13.480;2023-07-20T00:16:14;17.30;99.90
9311;DHT22;4694;52.464;13.480;2023-07-20T00:18:41;17.20;99.90
9311;DHT22;4694;52.464;13.480;2023-07-20T00:21:08;17.20;99.90
9311;DHT22;4694;52.464;13.480;2023-07-20T00:23:34;17.20;99.90
9311;DHT22;4694;52.464;13.480;2023-07-20T00:26:01;17.10;99.90
9311;DHT22;4694;52.464;13.480;2023-07-20T00:28:28;17.10;99.90
9311;DHT22;4694;52.464;13.480;2023-07-20T00:30:55;17.10;99.90
9311;DHT22;4694;52.464;13.480;2023-07-20T00:33:23;17.00;99.90
9311;DHT22;4694;52.464;13.480;2023-07-20T00:35:51;17.00;99.90
9311;DHT22;4694;52.464;13.480;2023-07-20T00:38:17;17.00;99.90
9311;DHT22;4694;52.464;13.480;2023-07-20T00:40:44;16.90;99.90
9311;DHT22;4694;52.464;13.480;2023-07-20T00:43:11;16.90;99.90
9311;DHT22;4694;52.464;13.480;2023-07-20T00:45:38;16.90;99.90
9311;DHT22;4694;52.464;13.480;2023-07-20T00:48:06;16.80;99.90
9311;DHT22;4694;52.464;13.480;2023-07-20T00:50:34;16.80;99.90
9311;DHT22;4694;52.464;13.480;2023-07-20T00:53:03;16.80;99.90
9311;DHT22;4694;52.464;13.480;2023-07-20T00:55:30;16.70;99.90
9311;DHT22;4694;52.464;13.480;2023-07-20T00:57:57;16.70;99.90
9311;DHT22;4694;52.464;13.480;2023-07-20T01:00:24;16.70;99.90
9311;DHT22;4694;52.464;13.480;2023-07-20T01:02:51;16.70;99.90
9311;DHT22;4694;52.464;13.480;2023-07-20T01:05:18;16.70;99.90
9311;DHT22;4694;52.464;13.480;2023-07-20T01:07:52;16.70;99.90
9311;DHT22;4694;52.464;13.480;2023-07-20T01:10:25;16.60;99.90
9311;DHT22;4694;52.464;13.480;2023-07-20T01:12:55;16.60;99.90
9311;DHT22;4694;52.464;13.480;2023-07-20T01:15:22;16.50;99.90
9311;DHT22;4694;52.464;13.480;2023-07-20T01:17:49;16.50;99.90
9311;DHT22;4694;52.464;13.480;2023-07-20T01:20:19;16.50;99.90
9311;DHT22;4694;52.464;13.480;2023-07-20T01:25:41;16.50;99.90
9311;DHT22;4694;52.464;13.480;2023-07-20T01:28:35;16.40;99.90
9311;DHT22;4694;52.464;13.480;2023-07-20T01:31:20;16.40;99.90
9311;DHT22;4694;52.464;13.480;2023-07-20T01:33:48;16.30;99.90
9311;DHT22;4694;52.464;13.480;2023-07-20T01:36:17;16.30;99.90
9311;DHT22;4694;52.464;13.480;2023-07-20T01:38:46;16.30;99.90
9311;DHT22;4694;52.464;13.480;2023-07-20T01:41:14;16.30;99.90
9311;DHT22;4694;52.464;13.480;2023-07-20T01:43:42;16.30;99.90
9311;DHT22;4694;52.464;13.480;2023-07-20T01:46:09;16.40;99.90
9311;DHT22;4694;52.464;13.480;2023-07-20T01:48:37;16.40;99.90
9311;DHT22;4694;52.464;13.480;2023-07-20T01:51:03;16.40;99.90
9311;DHT22;4694;52.464;13.480;2023-07-20T01:53:30;16.40;99.90
9311;DHT22;4694;52.464;13.480;2023-07-20T01:55:57;16.40;99.90
9311;DHT22;4694;52.464;13.480;2023-07-20T01:58:23;16.40;99.90
9311;DHT22;4694;52.464;13.480;2023-07-20T02:00:51;16.40;99.90
9311;DHT22;4694;52.464;13.480;2023-07-20T02:03:17;16.40;99.90
9311;DHT22;4694;52.464;13.480;2023-07-20T02:05:45;16.30;99.90
9311;DHT22;4694;52.464;13.480;2023-07-20T02:08:12;16.40;99.90
9311;DHT22;4694;52.464;13.480;2023-07-20T02:10:38;16.40;99.90
9311;DHT22;4694;52.464;13.480;2023-07-20T02:13:05;16.30;99.90
9311;DHT22;4694;52.464;13.480;2023-07-20T02:15:32;16.40;99.90
9311;DHT22;4694;52.464;13.480;2023-07-20T02:17:58;16.30;99.90
9311;DHT22;4694;52.464;13.480;2023-07-20T02:20:25;16.40;99.90
9311;DHT22;4694;52.464;13.480;2023-07-20T02:22:54;16.40;99.90
9311;DHT22;4694;52.464;13.480;2023-07-20T02:25:21;16.30;99.90
9311;DHT22;4694;52.464;13.480;2023-07-20T02:27:48;16.30;99.90
9311;DHT22;4694;52.464;13.480;2023-07-20T02:30:14;16.20;99.90
9311;DHT22;4694;52.464;13.480;2023-07-20T02:32:41;16.20;99.90
9311;DHT22;4694;52.464;13.480;2023-07-20T02:35:11;16.20;99.90
9311;DHT22;4694;52.464;13.480;2023-07-20T02:37:37;16.20;99.90
9311;DHT22;4694;52.464;13.480;2023-07-20T02:40:07;16.10;99.90
9311;DHT22;4694;52.464;13.480;2023-07-20T02:42:34;16.10;99.90
9311;DHT22;4694;52.464;13.480;2023-07-20T02:45:01;16.10;99.90
9311;DHT22;4694;52.464;13.480;2023-07-20T02:47:29;16.10;99.90
9311;DHT22;4694;52.464;13.480;2023-07-20T02:49:56;16.20;99.90
9311;DHT22;4694;52.464;13.480;2023-07-20T02:52:23;16.20;99.90
9311;DHT22;4694;52.464;13.480;2023-07-20T02:54:50;16.30;99.90
9311;DHT22;4694;52.464;13.480;2023-07-20T02:57:18;16.40;99.90
9311;DHT22;4694;52.464;13.480;2023-07-20T02:59:44;16.40;99.90
9311;DHT22;4694;52.464;13.480;2023-07-20T03:02:11;16.50;99.90
9311;DHT22;4694;52.464;13.480;2023-07-20T03:04:38;16.50;99.90
9311;DHT22;4694;52.464;13.480;2023-07-20T03:07:04;16.50;99.90
9311;DHT22;4694;52.464;13.480;2023-07-20T03:09:32;16.50;99.90
9311;DHT22;4694;52.464;13.480;2023-07-20T03:11:59;16.50;99.90
9311;DHT22;4694;52.464;13.480;2023-07-20T03:14:27;16.50;99.90
9311;DHT22;4694;52.464;13.480;2023-07-20T03:16:54;16.50;99.90
9311;DHT22;4694;52.464;13.480;2023-07-20T03:19:21;16.50;99.90
9311;DHT22;4694;52.464;13.480;2023-07-20T03:21:47;16.40;99.90
9311;DHT22;4694;52.464;13.480;2023-07-20T03:24:16;16.40;99.90
9311;DHT22;4694;52.464;13.480;2023-07-20T03:26:42;16.40;99.90
9311;DHT22;4694;52.464;13.480;2023-07-20T03:29:09;16.40;99.90
9311;DHT22;4694;52.464;13.480;2023-07-20T03:31:37;16.40;99.90
9311;DHT22;4694;52.464;13.480;2023-07-20T03:34:04;16.30;99.90
9311;DHT22;4694;52.464;13.480;2023-07-20T03:36:31;16.30;99.90
9311;DHT22;4694;52.464;13.480;2023-07-20T03:38:58;16.40;99.90
9311;DHT22;4694;52.464;13.480;2023-07-20T03:41:24;16.40;99.90
9311;DHT22;4694;52.464;13.480;2023-07-20T03:43:51;16.40;99.90
9311;DHT22;4694;52.464;13.480;2023-07-20T03:46:18;16.40;99.90
9311;DHT22;4694;52.464;13.480;2023-07-20T03:48:46;16.40;99.90
9311;DHT22;4694;52.464;13.480;2023-07-20T03:51:13;16.50;99.90
9311;DHT22;4694;52.464;13.480;2023-07-20T03:53:39;16.50;99.90
9311;DHT22;4694;52.464;13.480;2023-07-20T03:56:06;16.50;99.90
9311;DHT22;4694;52.464;13.480;2023-07-20T03:58:32;16.50;99.90
9311;DHT22;4694;52.464;13.480;2023-07-20T04:00:59;16.50;99.90
9311;DHT22;4694;52.464;13.480;2023-07-20T04:03:26;16.50;99.90
9311;DHT22;4694;52.464;13.480;2023-07-20T04:05:55;16.50;99.90
9311;DHT22;4694;52.464;13.480;2023-07-20T04:08:23;16.50;99.90
9311;DHT22;4694;52.464;13.480;2023-07-20T04:10:50;16.60;99.90
9311;DHT22;4694;52.464;13.480;2023-07-20T04:13:17;16.60;99.90
9311;DHT22;4694;52.464;13.480;2023-07-20T04:15:44;16.50;99.90
9311;DHT22;4694;52.464;13.480;2023-07-20T04:18:11;16.50;99.90
9311;DHT22;4694;52.464;13.480;2023-07-20T04:20:37;16.50;99.90
9311;DHT22;4694;52.464;13.480;2023-07-20T04:23:05;16.40;99.90
9311;DHT22;4694;52.464;13.480;2023-07-20T04:25:32;16.20;99.90
9311;DHT22;4694;52.464;13.480;2023-07-20T04:28:04;16.40;99.90
9311;DHT22;4694;52.464;13.480;2023-07-20T04:30:34;16.40;99.90
9311;DHT22;4694;52.464;13.480;2023-07-20T04:33:00;16.50;99.90
9311;DHT22;4694;52.464;13.480;2023-07-20T04:35:45;16.50;99.90
9311;DHT22;4694;52.464;13.480;2023-07-20T04:38:14;16.50;99.90
9311;DHT22;4694;52.464;13.480;2023-07-20T04:40:43;16.60;99.90
9311;DHT22;4694;52.464;13.480;2023-07-20T04:43:10;16.60;99.90
9311;DHT22;4694;52.464;13.480;2023-07-20T04:45:38;16.50;99.90
9311;DHT22;4694;52.464;13.480;2023-07-20T04:48:09;16.60;99.90
9311;DHT22;4694;52.464;13.480;2023-07-20T04:50:36;16.60;99.90
9311;DHT22;4694;52.464;13.480;2023-07-20T04:53:02;16.60;99.90
9311;DHT22;4694;52.464;13.480;2023-07-20T04:55:31;16.60;99.90
9311;DHT22;4694;52.464;13.480;2023-07-20T04:57:59;16.60;99.90
9311;DHT22;4694;52.464;13.480;2023-07-20T05:00:26;16.60;99.90
9311;DHT22;4694;52.464;13.480;2023-07-20T05:02:52;16.60;99.90
9311;DHT22;4694;52.464;13.480;2023-07-20T05:05:19;16.60;99.90
9311;DHT22;4694;52.464;13.480;2023-07-20T05:07:45;16.70;99.90
9311;DHT22;4694;52.464;13.480;2023-07-20T05:10:12;16.70;99.90
9311;DHT22;4694;52.464;13.480;2023-07-20T05:12:40;16.70;99.90
9311;DHT22;4694;52.464;13.480;2023-07-20T05:15:07;16.80;99.90
9311;DHT22;4694;52.464;13.480;2023-07-20T05:17:34;16.90;99.90
9311;DHT22;4694;52.464;13.480;2023-07-20T05:20:01;17.00;99.90
9311;DHT22;4694;52.464;13.480;2023-07-20T05:22:30;17.00;99.90
9311;DHT22;4694;52.464;13.480;2023-07-20T05:24:56;17.10;99.90
9311;DHT22;4694;52.464;13.480;2023-07-20T05:27:23;17.20;99.90
9311;DHT22;4694;52.464;13.480;2023-07-20T05:29:51;17.20;99.90
9311;DHT22;4694;52.464;13.480;2023-07-20T05:32:18;17.20;99.90
9311;DHT22;4694;52.464;13.480;2023-07-20T05:34:44;17.30;99.90
9311;DHT22;4694;52.464;13.480;2023-07-20T05:37:11;17.30;99.90
9311;DHT22;4694;52.464;13.480;2023-07-20T05:39:38;17.30;99.90
9311;DHT22;4694;52.464;13.480;2023-07-20T05:42:05;17.50;99.90
9311;DHT22;4694;52.464;13.480;2023-07-20T05:44:31;17.70;99.90
9311;DHT22;4694;52.464;13.480;2023-07-20T05:47:00;17.80;99.90
9311;DHT22;4694;52.464;13.480;2023-07-20T05:49:27;18.10;99.90
9311;DHT22;4694;52.464;13.480;2023-07-20T05:51:54;18.30;99.90
9311;DHT22;4694;52.464;13.480;2023-07-20T05:54:21;18.40;99.90
9311;DHT22;4694;52.464;13.480;2023-07-20T05:56:48;18.30;99.90
9311;DHT22;4694;52.464;13.480;2023-07-20T05:59:14;18.30;99.90
9311;DHT22;4694;52.464;13.480;2023-07-20T06:01:42;18.30;99.90
9311;DHT22;4694;52.464;13.480;2023-07-20T06:04:10;18.30;99.90
9311;DHT22;4694;52.464;13.480;2023-07-20T06:06:37;18.40;99.90
9311;DHT22;4694;52.464;13.480;2023-07-20T06:09:04;18.30;99.90
9311;DHT22;4694;52.464;13.480;2023-07-20T06:11:35;18.30;99.90
9311;DHT22;4694;52.464;13.480;2023-07-20T06:14:01;18.30;99.90
9311;DHT22;4694;52.464;13.480;2023-07-20T06:16:28;18.40;99.90
9311;DHT22;4694;52.464;13.480;2023-07-20T06:18:55;18.60;99.90
9311;DHT22;4694;52.464;13.480;2023-07-20T06:21:23;18.70;99.90
9311;DHT22;4694;52.464;13.480;2023-07-20T06:23:50;18.80;99.90
9311;DHT22;4694;52.464;13.480;2023-07-20T06:26:16;18.90;99.90
9311;DHT22;4694;52.464;13.480;2023-07-20T06:28:43;19.00;99.90
9311;DHT22;4694;52.464;13.480;2023-07-20T06:31:09;18.90;99.90
9311;DHT22;4694;52.464;13.480;2023-07-20T06:33:36;18.80;99.90
9311;DHT22;4694;52.464;13.480;2023-07-20T06:36:04;18.70;99.90
9311;DHT22;4694;52.464;13.480;2023-07-20T06:38:32;18.60;99.90
9311;DHT22;4694;52.464;13.480;2023-07-20T06:40:58;18.90;99.90
9311;DHT22;4694;52.464;13.480;2023-07-20T06:43:25;18.80;99.90
9311;DHT22;4694;52.464;13.480;2023-07-20T06:45:52;18.80;99.90
9311;DHT22;4694;52.464;13.480;2023-07-20T06:48:19;18.70;99.90
9311;DHT22;4694;52.464;13.480;2023-07-20T06:50:46;19.00;99.90
9311;DHT22;4694;52.464;13.480;2023-07-20T06:53:12;18.80;99.90
9311;DHT22;4694;52.464;13.480;2023-07-20T06:55:42;18.70;99.90
9311;DHT22;4694;52.464;13.480;2023-07-20T06:58:08;18.70;99.90
9311;DHT22;4694;52.464;13.480;2023-07-20T07:00:35;18.70;99.90
9311;DHT22;4694;52.464;13.480;2023-07-20T07:03:02;18.70;99.90
9311;DHT22;4694;52.464;13.480;2023-07-20T07:05:29;18.80;99.90
9311;DHT22;4694;52.464;13.480;2023-07-20T07:07:55;19.10;99.90
9311;DHT22;4694;52.464;13.480;2023-07-20T07:10:22;19.30;99.90
9311;DHT22;4694;52.464;13.480;2023-07-20T07:12:50;20.10;99.90
9311;DHT22;4694;52.464;13.480;2023-07-20T07:15:16;20.80;99.90
9311;DHT22;4694;52.464;13.480;2023-07-20T07:17:43;21.60;99.90
9311;DHT22;4694;52.464;13.480;2023-07-20T07:20:10;22.30;99.90
9311;DHT22;4694;52.464;13.480;2023-07-20T07:22:37;23.10;99.90
9311;DHT22;4694;52.464;13.480;2023-07-20T07:25:04;23.80;99.90
9311;DHT22;4694;52.464;13.480;2023-07-20T07:27:31;24.00;99.90
9311;DHT22;4694;52.464;13.480;2023-07-20T07:29:59;24.10;99.90
9311;DHT22;4694;52.464;13.480;2023-07-20T07:32:26;23.80;99.90
9311;DHT22;4694;52.464;13.480;2023-07-20T07:34:52;23.50;99.90
9311;DHT22;4694;52.464;13.480;2023-07-20T07:37:19;23.20;99.90
9311;DHT22;4694;52.464;13.480;2023-07-20T07:39:46;22.90;99.90
9311;DHT22;4694;52.464;13.480;2023-07-20T07:42:12;22.60;99.90
9311;DHT22;4694;52.464;13.480;2023-07-20T07:44:39;22.70;99.90
9311;DHT22;4694;52.464;13.480;2023-07-20T07:47:07;22.70;99.90
9311;DHT22;4694;52.464;13.480;2023-07-20T07:49:34;22.70;99.90
9311;DHT22;4694;52.464;13.480;2023-07-20T07:52:00;23.00;99.90
9311;DHT22;4694;52.464;13.480;2023-07-20T07:54:28;23.00;99.90
9311;DHT22;4694;52.464;13.480;2023-07-20T07:56:55;22.90;99.90
9311;DHT22;4694;52.464;13.480;2023-07-20T07:59:21;22.70;99.90
9311;DHT22;4694;52.464;13.480;2023-07-20T08:01:51;22.50;99.90
9311;DHT22;4694;52.464;13.480;2023-07-20T08:04:20;22.40;99.90
9311;DHT22;4694;52.464;13.480;2023-07-20T08:06:47;22.40;99.90
9311;DHT22;4694;52.464;13.480;2023-07-20T08:09:13;22.20;99.90
9311;DHT22;4694;52.464;13.480;2023-07-20T08:11:40;21.90;99.90
9311;DHT22;4694;52.464;13.480;2023-07-20T08:14:07;21.80;99.90
9311;DHT22;4694;52.464;13.480;2023-07-20T08:16:33;21.60;99.90
9311;DHT22;4694;52.464;13.480;2023-07-20T08:19:00;21.60;99.90
9311;DHT22;4694;52.464;13.480;2023-07-20T08:21:28;22.40;99.90
9311;DHT22;4694;52.464;13.480;2023-07-20T08:23:55;22.90;99.90
9311;DHT22;4694;52.464;13.480;2023-07-20T08:26:23;23.50;99.90
9311;DHT22;4694;52.464;13.480;2023-07-20T08:28:49;23.50;99.90
9311;DHT22;4694;52.464;13.480;2023-07-20T08:31:16;23.40;99.90
9311;DHT22;4694;52.464;13.480;2023-07-20T08:33:43;23.30;99.90
9311;DHT22;4694;52.464;13.480;2023-07-20T08:36:09;23.20;99.90
9311;DHT22;4694;52.464;13.480;2023-07-20T08:38:37;22.80;99.90
9311;DHT22;4694;52.464;13.480;2023-07-20T08:41:06;22.50;99.90
9311;DHT22;4694;52.464;13.480;2023-07-20T08:43:33;22.40;99.90
9311;DHT22;4694;52.464;13.480;2023-07-20T08:46:00;22.60;99.90
9311;DHT22;4694;52.464;13.480;2023-07-20T08:48:28;22.90;99.90
9311;DHT22;4694;52.464;13.480;2023-07-20T08:50:56;23.40;99.90
9311;DHT22;4694;52.464;13.480;2023-07-20T08:53:25;23.30;99.90
9311;DHT22;4694;52.464;13.480;2023-07-20T08:55:55;23.70;99.90
9311;DHT22;4694;52.464;13.480;2023-07-20T08:58:23;23.70;99.90
9311;DHT22;4694;52.464;13.480;2023-07-20T09:00:52;23.80;99.90
9311;DHT22;4694;52.464;13.480;2023-07-20T09:03:19;23.60;99.90
9311;DHT22;4694;52.464;13.480;2023-07-20T09:05:46;23.40;99.90
9311;DHT22;4694;52.464;13.480;2023-07-20T09:08:13;23.10;99.90
9311;DHT22;4694;52.464;13.480;2023-07-20T09:10:39;23.00;99.90
9311;DHT22;4694;52.464;13.480;2023-07-20T09:13:07;23.20;99.90
9311;DHT22;4694;52.464;13.480;2023-07-20T09:15:34;23.90;99.90
9311;DHT22;4694;52.464;13.480;2023-07-20T09:18:02;24.30;99.90
9311;DHT22;4694;52.464;13.480;2023-07-20T09:20:31;24.60;99.90
9311;DHT22;4694;52.464;13.480;2023-07-20T09:23:04;24.70;99.40
9311;DHT22;4694;52.464;13.480;2023-07-20T09:25:31;25.10;99.40
9311;DHT22;4694;52.464;13.480;2023-07-20T09:28:02;25.20;98.70
9311;DHT22;4694;52.464;13.480;2023-07-20T09:30:30;25.00;98.10
9311;DHT22;4694;52.464;13.480;2023-07-20T09:32:58;24.60;98.30
9311;DHT22;4694;52.464;13.480;2023-07-20T09:35:25;24.50;98.00
9311;DHT22;4694;52.464;13.480;2023-07-20T09:37:57;24.20;97.40
9311;DHT22;4694;52.464;13.480;2023-07-20T09:40:24;24.30;98.20
9311;DHT22;4694;52.464;13.480;2023-07-20T09:42:52;24.60;97.40
9311;DHT22;4694;52.464;13.480;2023-07-20T09:45:28;24.50;97.30
9311;DHT22;4694;52.464;13.480;2023-07-20T09:48:03;24.10;98.20
9311;DHT22;4694;52.464;13.480;2023-07-20T09:50:31;23.90;97.80
9311;DHT22;4694;52.464;13.480;2023-07-20T09:53:00;23.70;97.90
9311;DHT22;4694;52.464;13.480;2023-07-20T09:55:29;23.90;97.80
9311;DHT22;4694;52.464;13.480;2023-07-20T09:57:56;24.40;97.90
9311;DHT22;4694;52.464;13.480;2023-07-20T10:00:23;25.00;97.30
9311;DHT22;4694;52.464;13.480;2023-07-20T10:02:51;25.00;96.80
9311;DHT22;4694;52.464;13.480;2023-07-20T10:05:20;24.90;96.10
9311;DHT22;4694;52.464;13.480;2023-07-20T10:07:48;24.20;96.40
9311;DHT22;4694;52.464;13.480;2023-07-20T10:10:16;23.70;97.10
9311;DHT22;4694;52.464;13.480;2023-07-20T10:12:46;23.20;97.70
9311;DHT22;4694;52.464;13.480;2023-07-20T10:15:18;22.90;98.20
9311;DHT22;4694;52.464;13.480;2023-07-20T10:17:57;22.20;98.80
9311;DHT22;4694;52.464;13.480;2023-07-20T10:20:30;21.80;99.20
9311;DHT22;4694;52.464;13.480;2023-07-20T10:22:59;21.40;99.90
9311;DHT22;4694;52.464;13.480;2023-07-20T10:25:26;21.30;99.90
9311;DHT22;4694;52.464;13.480;2023-07-20T10:27:55;21.30;99.90
9311;DHT22;4694;52.464;13.480;2023-07-20T10:30:23;21.30;99.90
9311;DHT22;4694;52.464;13.480;2023-07-20T10:32:51;21.10;99.90
9311;DHT22;4694;52.464;13.480;2023-07-20T10:35:18;21.50;99.90
9311;DHT22;4694;52.464;13.480;2023-07-20T10:37:47;22.90;99.90
9311;DHT22;4694;52.464;13.480;2023-07-20T10:40:27;24.80;99.90
9311;DHT22;4694;52.464;13.480;2023-07-20T10:42:57;26.00;96.60
9311;DHT22;4694;52.464;13.480;2023-07-20T10:45:39;26.40;95.30
9311;DHT22;4694;52.464;13.480;2023-07-20T10:48:13;25.60;94.70
9311;DHT22;4694;52.464;13.480;2023-07-20T10:50:41;24.60;96.20
9311;DHT22;4694;52.464;13.480;2023-07-20T10:53:13;23.90;96.90
9311;DHT22;4694;52.464;13.480;2023-07-20T10:55:41;23.50;97.50
9311;DHT22;4694;52.464;13.480;2023-07-20T10:58:10;22.80;98.40
9311;DHT22;4694;52.464;13.480;2023-07-20T11:00:37;22.50;99.30
9311;DHT22;4694;52.464;13.480;2023-07-20T11:03:05;22.10;99.90
9311;DHT22;4694;52.464;13.480;2023-07-20T11:05:33;22.10;99.90
9311;DHT22;4694;52.464;13.480;2023-07-20T11:08:00;22.30;99.90
9311;DHT22;4694;52.464;13.480;2023-07-20T11:10:30;22.40;99.90
9311;DHT22;4694;52.464;13.480;2023-07-20T11:13:16;22.30;99.90
9311;DHT22;4694;52.464;13.480;2023-07-20T11:15:47;22.10;99.90
9311;DHT22;4694;52.464;13.480;2023-07-20T11:18:14;22.10;99.90
9311;DHT22;4694;52.464;13.480;2023-07-20T11:20:42;22.20;99.90
9311;DHT22;4694;52.464;13.480;2023-07-20T11:23:09;22.50;99.90
9311;DHT22;4694;52.464;13.480;2023-07-20T11:25:39;22.50;99.90
9311;DHT22;4694;52.464;13.480;2023-07-20T11:28:09;22.40;99.90
9311;DHT22;4694;52.464;13.480;2023-07-20T11:30:37;22.30;99.90
9311;DHT22;4694;52.464;13.480;2023-07-20T11:33:04;22.10;99.90
9311;DHT22;4694;52.464;13.480;2023-07-20T11:35:31;21.80;99.90
9311;DHT22;4694;52.464;13.480;2023-07-20T11:38:01;21.50;99.90
9311;DHT22;4694;52.464;13.480;2023-07-20T11:40:27;21.40;99.90
9311;DHT22;4694;52.464;13.480;2023-07-20T11:42:56;21.70;99.90
9311;DHT22;4694;52.464;13.480;2023-07-20T11:45:22;21.80;99.90
9311;DHT22;4694;52.464;13.480;2023-07-20T11:47:49;21.90;99.90
9311;DHT22;4694;52.464;13.480;2023-07-20T11:50:16;22.00;99.90
9311;DHT22;4694;52.464;13.480;2023-07-20T11:52:43;22.30;99.90
9311;DHT22;4694;52.464;13.480;2023-07-20T11:55:11;22.80;99.90
9311;DHT22;4694;52.464;13.480;2023-07-20T11:57:38;23.40;99.90
9311;DHT22;4694;52.464;13.480;2023-07-20T12:00:07;24.50;99.90
9311;DHT22;4694;52.464;13.480;2023-07-20T12:02:37;25.80;98.50
9311;DHT22;4694;52.464;13.480;2023-07-20T12:05:05;25.80;97.10
9311;DHT22;4694;52.464;13.480;2023-07-20T12:07:35;25.40;96.90
9311;DHT22;4694;52.464;13.480;2023-07-20T12:10:03;25.40;97.30
9311;DHT22;4694;52.464;13.480;2023-07-20T12:12:31;25.90;96.40
9311;DHT22;4694;52.464;13.480;2023-07-20T12:15:15;26.90;95.10
9311;DHT22;4694;52.464;13.480;2023-07-20T12:17:43;27.60;93.10
9311;DHT22;4694;52.464;13.480;2023-07-20T12:20:11;27.20;91.90
9311;DHT22;4694;52.464;13.480;2023-07-20T12:22:39;26.70;92.10
9311;DHT22;4694;52.464;13.480;2023-07-20T12:25:06;26.00;92.70
9311;DHT22;4694;52.464;13.480;2023-07-20T12:27:35;25.60;93.60
9311;DHT22;4694;52.464;13.480;2023-07-20T12:30:01;25.00;94.00
9311;DHT22;4694;52.464;13.480;2023-07-20T12:32:31;24.20;94.90
9311;DHT22;4694;52.464;13.480;2023-07-20T12:34:57;23.40;96.30
9311;DHT22;4694;52.464;13.480;2023-07-20T12:37:25;22.60;97.30
9311;DHT22;4694;52.464;13.480;2023-07-20T12:39:52;22.20;99.10
9311;DHT22;4694;52.464;13.480;2023-07-20T12:42:19;21.90;99.90
9311;DHT22;4694;52.464;13.480;2023-07-20T12:44:47;21.80;99.90
9311;DHT22;4694;52.464;13.480;2023-07-20T12:47:13;21.70;99.90
9311;DHT22;4694;52.464;13.480;2023-07-20T12:49:41;21.80;99.90
9311;DHT22;4694;52.464;13.480;2023-07-20T12:52:10;22.30;99.90
9311;DHT22;4694;52.464;13.480;2023-07-20T12:54:37;23.10;99.30
9311;DHT22;4694;52.464;13.480;2023-07-20T12:57:04;23.80;98.20
9311;DHT22;4694;52.464;13.480;2023-07-20T12:59:30;24.40;95.90
9311;DHT22;4694;52.464;13.480;2023-07-20T13:01:57;25.40;94.30
9311;DHT22;4694;52.464;13.480;2023-07-20T13:04:24;27.20;92.30
9311;DHT22;4694;52.464;13.480;2023-07-20T13:06:52;28.30;89.80
9311;DHT22;4694;52.464;13.480;2023-07-20T13:09:20;29.60;81.30
9311;DHT22;4694;52.464;13.480;2023-07-20T13:11:46;31.20;77.10
9311;DHT22;4694;52.464;13.480;2023-07-20T13:14:13;32.60;71.30
9311;DHT22;4694;52.464;13.480;2023-07-20T13:16:39;32.90;66.70
9311;DHT22;4694;52.464;13.480;2023-07-20T13:19:07;33.10;64.00
9311;DHT22;4694;52.464;13.480;2023-07-20T13:21:33;33.80;59.60
9311;DHT22;4694;52.464;13.480;2023-07-20T13:24:08;33.80;56.30
9311;DHT22;4694;52.464;13.480;2023-07-20T13:26:35;33.20;53.50
9311;DHT22;4694;52.464;13.480;2023-07-20T13:29:02;33.80;53.90
9311;DHT22;4694;52.464;13.480;2023-07-20T13:31:29;34.50;53.30
9311;DHT22;4694;52.464;13.480;2023-07-20T13:33:55;34.80;51.80
9311;DHT22;4694;52.464;13.480;2023-07-20T13:36:24;35.10;50.70
9311;DHT22;4694;52.464;13.480;2023-07-20T13:38:50;34.70;50.50
9311;DHT22;4694;52.464;13.480;2023-07-20T13:41:19;34.40;50.60
9311;DHT22;4694;52.464;13.480;2023-07-20T13:43:45;34.80;49.80
9311;DHT22;4694;52.464;13.480;2023-07-20T13:46:12;34.70;49.00
9311;DHT22;4694;52.464;13.480;2023-07-20T13:48:39;34.70;49.60
9311;DHT22;4694;52.464;13.480;2023-07-20T13:51:05;35.20;49.40
9311;DHT22;4694;52.464;13.480;2023-07-20T13:53:32;35.20;48.40
9311;DHT22;4694;52.464;13.480;2023-07-20T13:55:59;35.00;48.30
9311;DHT22;4694;52.464;13.480;2023-07-20T13:58:27;34.80;48.30
9311;DHT22;4694;52.464;13.480;2023-07-20T14:00:53;35.00;48.30
9311;DHT22;4694;52.464;13.480;2023-07-20T14:03:20;35.00;47.90
9311;DHT22;4694;52.464;13.480;2023-07-20T14:05:47;34.70;48.10
9311;DHT22;4694;52.464;13.480;2023-07-20T14:08:14;34.70;48.40
9311;DHT22;4694;52.464;13.480;2023-07-20T14:10:41;34.10;48.10
9311;DHT22;4694;52.464;13.480;2023-07-20T14:13:07;32.30;48.90
9311;DHT22;4694;52.464;13.480;2023-07-20T14:15:36;30.80;50.80
9311;DHT22;4694;52.464;13.480;2023-07-20T14:18:03;30.30;52.30
9311;DHT22;4694;52.464;13.480;2023-07-20T14:20:30;30.20;52.10
9311;DHT22;4694;52.464;13.480;2023-07-20T14:22:56;30.00;52.10
9311;DHT22;4694;52.464;13.480;2023-07-20T14:25:23;30.00;52.20
9311;DHT22;4694;52.464;13.480;2023-07-20T14:27:49;30.20;52.10
9311;DHT22;4694;52.464;13.480;2023-07-20T14:30:16;30.30;51.60
9311;DHT22;4694;52.464;13.480;2023-07-20T14:32:44;30.50;51.10
9311;DHT22;4694;52.464;13.480;2023-07-20T14:35:11;30.90;51.00
9311;DHT22;4694;52.464;13.480;2023-07-20T14:37:37;30.80;50.90
9311;DHT22;4694;52.464;13.480;2023-07-20T14:40:05;30.40;50.80
9311;DHT22;4694;52.464;13.480;2023-07-20T14:42:32;30.30;50.90
9311;DHT22;4694;52.464;13.480;2023-07-20T14:44:59;29.80;51.60
9311;DHT22;4694;52.464;13.480;2023-07-20T14:47:25;29.40;52.10
9311;DHT22;4694;52.464;13.480;2023-07-20T14:49:53;28.80;53.00
9311;DHT22;4694;52.464;13.480;2023-07-20T14:52:20;28.20;53.20
9311;DHT22;4694;52.464;13.480;2023-07-20T14:54:46;27.70;54.30
9311;DHT22;4694;52.464;13.480;2023-07-20T14:57:13;26.70;54.60
9311;DHT22;4694;52.464;13.480;2023-07-20T14:59:41;26.30;55.50
9311;DHT22;4694;52.464;13.480;2023-07-20T15:02:09;26.00;56.40
9311;DHT22;4694;52.464;13.480;2023-07-20T15:04:36;25.60;56.80
9311;DHT22;4694;52.464;13.480;2023-07-20T15:07:04;25.20;57.00
9311;DHT22;4694;52.464;13.480;2023-07-20T15:09:31;24.80;57.20
9311;DHT22;4694;52.464;13.480;2023-07-20T15:11:59;24.60;57.90
9311;DHT22;4694;52.464;13.480;2023-07-20T15:14:26;24.30;57.90
9311;DHT22;4694;52.464;13.480;2023-07-20T15:16:52;24.20;58.30
9311;DHT22;4694;52.464;13.480;2023-07-20T15:19:19;24.20;58.30
9311;DHT22;4694;52.464;13.480;2023-07-20T15:21:47;24.20;59.00
9311;DHT22;4694;52.464;13.480;2023-07-20T15:24:15;24.20;59.00
9311;DHT22;4694;52.464;13.480;2023-07-20T15:26:42;24.20;58.90
9311;DHT22;4694;52.464;13.480;2023-07-20T15:29:09;24.30;58.80
9311;DHT22;4694;52.464;13.480;2023-07-20T15:31:36;24.60;58.90
9311;DHT22;4694;52.464;13.480;2023-07-20T15:34:02;24.60;59.00
9311;DHT22;4694;52.464;13.480;2023-07-20T15:36:29;24.50;58.00
9311;DHT22;4694;52.464;13.480;2023-07-20T15:38:56;24.30;58.70
9311;DHT22;4694;52.464;13.480;2023-07-20T15:41:24;24.00;58.90
9311;DHT22;4694;52.464;13.480;2023-07-20T15:43:51;23.80;59.40
9311;DHT22;4694;52.464;13.480;2023-07-20T15:46:44;23.70;59.60
9311;DHT22;4694;52.464;13.480;2023-07-20T15:49:12;23.60;59.50
9311;DHT22;4694;52.464;13.480;2023-07-20T15:51:38;23.40;59.90